CMB807 Details

Departure: Thule Air Base (BGTL)
Arrival: Joint Base McGuire Dix Lakehurst (KWRI) at N/A
Notes: USTRANSCOM CONTRACT FLIGHT


Current Weather Information
BGTL 171556Z AUTO 28005KT 9999 CLR 08/05 A3007 RMK AO2 SLP166 T00820046 TSNO $
KWRI 171636Z AUTO 00000KT 10SM FEW031 SCT043 29/22 A3000 RMK AO2 RAB27E36 SLP158 $